宮崎空港の過去48時間の天気

宮崎空港 (Miyazaki)

現在時刻: 7/17 18:38 JST (7/17 09:38 UTC) 以下の時間は現地時間です。

過去48時間のMETAR気象情報
時間 風向 風速(m/s) 視程 気温(℃) 湿度(%) 気圧(hPa) 天気現象
17 18:00 南東 5 10km以上 29 84 1010
17 17:00 南東 5 10km以上 30 79 1011
17 16:00 南東 4 10km以上 30 79 1011
17 15:00 南東 5 10km以上 30 79 1011
17 14:00 南東 5 10km以上 30 79 1011
17 13:00 南東 5 10km以上 30 70 1012
17 12:00 東南東 3 10km以上 30 75 1012
17 11:00 4 10km以上 30 75 1012
17 10:00 3 10km以上 29 79 1012
17 09:00 3 10km以上 29 79 1012
17 08:00 北東 2 10km以上 29 79 1012
17 07:00 不定 1 10km以上 27 89 1013
17 06:10 西北西 1 10km以上 25 94 1013
RJFM 170900Z 13009KT 9999 FEW035 SCT/// 29/26 Q1010
RJFM 170800Z 14009KT 9999 FEW035 SCT/// 30/26 Q1011
RJFM 170700Z 14008KT 9999 FEW035 SCT/// 30/26 Q1011
RJFM 170600Z 14009KT 9999 FEW035 SCT/// 30/26 Q1011
RJFM 170500Z 13010KT 9999 FEW035 30/26 Q1011
RJFM 170400Z 13009KT 9999 FEW035 SCT/// 30/24 Q1012
RJFM 170300Z 11006KT 9999 FEW035 BKN/// 30/25 Q1012
RJFM 170200Z 10007KT 9999 FEW035 BKN/// 30/25 Q1012
RJFM 170100Z 10006KT 9999 FEW030 SCT/// 29/25 Q1012
RJFM 170000Z 10005KT 9999 FEW030 SCT/// 29/25 Q1012
RJFM 162300Z 05003KT 010V080 9999 FEW030 29/25 Q1012
RJFM 162200Z VRB02KT 9999 FEW030 27/25 Q1013
RJFM 162110Z 29002KT CAVOK 25/24 Q1013 RMK A2992